DAAJ/DJG METAR and TAF weather

Enter ICAO airport designator
Station Type Date Time Source
DAAJ METAR 2024/05/28 23:00 UTC NOAA

DAAJ 282300Z 10016KT 6000 NSC 31/02 Q1014


Station Type Date Time Source
DAAJ Decoded METAR 2024/05/28 23:00 UTC NOAA

Djanet, Algeria (DAAJ) 24-33N 009-28E 1054M
May 28, 2024 - 07:00 PM EDT / 2024.05.28 2300 UTC
Wind: from the E (100 degrees) at 18 MPH (16 KT):0
Visibility: 3 mile(s):0
Temperature: 87 F (31 C)
Dew Point: 35 F (2 C)
Relative Humidity: 15%
Pressure (altimeter): 29.94 in. Hg (1014 hPa)
ob: DAAJ 282300Z 10016KT 6000 NSC 31/02 Q1014
cycle: 23

Station Type Date Time Source
DAAJ TAF 2024/05/28 18:21 UTC NOAA